RJEB

Details ICAO RJEB (MBE)
Name MONBETSU
Region Japan
Timezone Asia/Tokyo (UTC+9.0)
Plans Departing 2
Arriving 4
Stats Elevation 80 ft / 24 m (AMSL)
Location 44.303913° 143.404026°
Runways 1
Magnetic Variation 9.498° W
Sunrise 2017-12-11 21:54:02 UTC / 2017-12-12 06:54:02 Local
Sunset 2017-12-12 06:48:42 UTC / 2017-12-12 15:48:42 Local
Advertisement - Login to hide

Runways

ID Width Length Bearing (true) Bearing (mag) Surface Threshold Offset Overrun Length
14 148 ft / 45 m 6,555 ft / 1,998 m 132.02° 141.52° Asphalt 0 ft / 0 m 200 ft / 61 m
32 148 ft / 45 m 6,555 ft / 1,998 m 312.03° 321.53° Asphalt 0 ft / 0 m 200 ft / 61 m

Approach Navaids

Runway Type Ident Frequency Range Bearing (true) Bearing (mag) Slope Elevation
32 Localiser IMV 111.55 MHz 18 nm / 33 km 312.02° 321.51° - 80 ft / 24 m (AMSL)
32 Glidescope IMV 111.55 MHz 10 nm / 19 km 312.02° 321.52° 3.00° 80 ft / 24 m (AMSL)
32 DME IMV 111.55 MHz 18 nm / 33 km - - - 86 ft / 26 m (AMSL)

Map

Weather


0- 5 10 15 20 25 30 35+ Temperature / ° C

Clouds and Precipitation
Forecast for 2017-12-12 12:00 UTC. Updated an hour ago

Ground ~20,000 ft ~40,000 ft Winds

METAR

RJEB 120700Z 24019KT 9999 -SHSN FEW030 SCT150 M03/M12 Q0993

TAF

Not found

Frequencies

Tower 118.15 MHz REMOTE
Warning: Do not use this data for real-world aviation or navigation. No guarantee of current accuracy is given.